Time;durP1;ratioP1;P1;durP2;ratioP2;P2;SDS_P1;SDS_P2;PMS_P1;PMS_P2;Temp;Humidity;BMP_temperature;BMP_pressure;BME280_temperature;BME280_humidity;BME280_pressure;Samples;Min_cycle;Max_cycle;Signal;HPM_P1;HPM_P2
2021/11/03 00:00:32;;;;;;;12.73;8.63;;;14.40;77.30;;;;;;5050865;28;20082;-60
2021/11/03 00:02:59;;;;;;;10.60;8.23;;;14.50;76.50;;;;;;5050451;28;20025;-60
2021/11/03 00:05:28;;;;;;;13.52;8.85;;;14.50;77.00;;;;;;5053492;28;20487;-60
2021/11/03 00:07:56;;;;;;;11.40;8.73;;;14.40;76.30;;;;;;5055826;28;20033;-60
2021/11/03 00:10:22;;;;;;;10.48;8.57;;;14.40;75.80;;;;;;5047281;28;20029;-60
2021/11/03 00:12:48;;;;;;;10.43;8.32;;;14.30;75.20;;;;;;5033942;28;20029;-60
2021/11/03 00:15:23;;;;;;;10.85;8.55;;;14.30;76.30;;;;;;5034623;28;20170;-60
2021/11/03 00:17:48;;;;;;;;;;;14.30;74.60;;;;;;5021335;28;20495;-60
2021/11/03 00:20:14;;;;;;;10.38;8.55;;;14.20;73.70;;;;;;5036292;28;20055;-60
2021/11/03 00:22:40;;;;;;;11.77;8.50;;;14.30;76.70;;;;;;5035534;28;20022;-61
2021/11/03 00:25:07;;;;;;;12.18;8.45;;;14.20;76.50;;;;;;5033802;28;20123;-60
2021/11/03 00:27:33;;;;;;;13.65;8.73;;;14.30;75.70;;;;;;5035527;28;20021;-60
2021/11/03 00:30:26;;;;;;;14.30;9.02;;;14.20;75.70;;;;;;5036980;28;20119;-60
2021/11/03 00:32:52;;;;;;;11.63;8.90;;;14.30;74.00;;;;;;5055250;28;20386;-60
2021/11/03 00:35:18;;;;;;;13.57;9.52;;;14.40;75.60;;;;;;5048646;28;20051;-60
2021/11/03 00:37:43;;;;;;;12.60;9.35;;;14.30;75.70;;;;;;5035388;28;20387;-61
2021/11/03 00:40:09;;;;;;;11.57;8.65;;;14.30;75.70;;;;;;5041331;28;20068;-60
2021/11/03 00:42:36;;;;;;;11.30;8.90;;;14.30;73.60;;;;;;5055322;28;20047;-60
2021/11/03 00:45:03;;;;;;;11.27;8.75;;;14.30;75.30;;;;;;5036855;28;22014;-60
2021/11/03 00:47:28;;;;;;;11.90;8.48;;;14.20;74.90;;;;;;5050698;28;20110;-60
2021/11/03 00:49:54;;;;;;;11.52;8.77;;;14.20;74.90;;;;;;5034531;28;20075;-60
2021/11/03 00:52:20;;;;;;;11.25;8.55;;;14.20;75.00;;;;;;5054890;28;20025;-60
2021/11/03 00:54:45;;;;;;;10.32;8.63;;;14.30;74.60;;;;;;5052601;28;20497;-60
2021/11/03 00:57:11;;;;;;;16.70;8.30;;;14.30;74.40;;;;;;5034597;28;20099;-60
2021/11/03 00:59:39;;;;;;;10.68;8.25;;;14.30;74.40;;;;;;5034829;28;20021;-60
2021/11/03 01:02:05;;;;;;;11.73;8.20;;;14.30;73.70;;;;;;5052062;28;20512;-60
2021/11/03 01:04:31;;;;;;;8.88;7.68;;;14.20;73.20;;;;;;5053378;28;20029;-60
2021/11/03 01:06:56;;;;;;;10.07;8.68;;;14.30;73.60;;;;;;5034596;28;20037;-60
2021/11/03 01:09:22;;;;;;;10.73;7.20;;;14.30;73.50;;;;;;5034016;28;20109;-60
2021/11/03 01:11:48;;;;;;;12.32;7.50;;;14.20;72.90;;;;;;5049462;28;20469;-60
2021/11/03 01:14:14;;;;;;;11.85;7.63;;;14.10;72.10;;;;;;5033591;28;20022;-60
2021/11/03 01:16:40;;;;;;;13.02;7.95;;;14.20;72.40;;;;;;5033993;28;20486;-60
2021/11/03 01:19:06;;;;;;;9.07;6.82;;;14.10;72.50;;;;;;5034712;28;20034;-61
2021/11/03 01:21:33;;;;;;;11.27;7.88;;;13.90;72.20;;;;;;5046360;28;20586;-62
2021/11/03 01:23:58;;;;;;;9.57;7.20;;;14.10;72.20;;;;;;5034165;28;20483;-61
2021/11/03 01:26:24;;;;;;;11.07;7.65;;;13.90;72.10;;;;;;5024738;28;20045;-60
2021/11/03 01:28:51;;;;;;;9.05;7.15;;;14.00;72.20;;;;;;5026474;28;20025;-60
2021/11/03 01:31:18;;;;;;;11.07;7.38;;;14.00;71.70;;;;;;5018486;28;20511;-60
2021/11/03 01:33:44;;;;;;;9.10;7.30;;;14.10;71.90;;;;;;5014025;28;20022;-60
2021/11/03 01:36:12;;;;;;;9.82;7.07;;;13.90;71.30;;;;;;5028638;28;20386;-60
2021/11/03 01:38:37;;;;;;;10.27;6.82;;;14.00;71.30;;;;;;5052976;28;20046;-60
2021/11/03 01:41:04;;;;;;;9.52;7.05;;;13.90;69.90;;;;;;5052047;28;20017;-60
2021/11/03 01:43:46;;;;;;;8.63;7.05;;;13.90;71.40;;;;;;5053891;28;20033;-60
2021/11/03 01:46:35;;;;;;;10.85;7.47;;;13.80;70.00;;;;;;5029431;28;20041;-60
2021/11/03 01:49:19;;;;;;;8.75;6.70;;;13.80;69.30;;;;;;5033954;28;20108;-60
2021/11/03 01:51:47;;;;;;;10.43;7.78;;;13.70;71.40;;;;;;5046508;28;20056;-60
2021/11/03 01:54:17;;;;;;;8.13;6.40;;;13.70;72.10;;;;;;5053707;28;20402;-61
2021/11/03 01:56:43;;;;;;;9.13;7.07;;;13.90;71.60;;;;;;5038882;28;20080;-60
2021/11/03 01:59:17;;;;;;;8.90;6.60;;;13.80;71.30;;;;;;5033662;28;20021;-60
2021/11/03 02:01:43;;;;;;;10.15;6.70;;;13.60;69.80;;;;;;5045293;28;20083;-60
2021/11/03 02:04:08;;;;;;;8.88;6.35;;;13.80;71.00;;;;;;5053446;28;20421;-60
2021/11/03 02:06:34;;;;;;;7.88;5.65;;;13.80;70.30;;;;;;5040607;28;20036;-61
2021/11/03 02:09:00;;;;;;;9.82;6.47;;;13.70;69.70;;;;;;5033764;28;20459;-61
2021/11/03 02:11:28;;;;;;;7.95;6.15;;;13.70;69.30;;;;;;5047244;28;20029;-61
2021/11/03 02:13:56;;;;;;;8.52;6.00;;;13.60;69.20;;;;;;5031733;28;20018;-60
2021/11/03 02:16:22;;;;;;;8.52;5.82;;;13.80;69.50;;;;;;5041016;28;20045;-61
2021/11/03 02:18:48;;;;;;;8.55;6.00;;;13.70;69.00;;;;;;5033641;28;20030;-61
2021/11/03 02:21:20;;;;;;;9.13;6.13;;;13.70;69.20;;;;;;5032439;28;20040;-61
2021/11/03 02:24:12;;;;;;;7.50;5.97;;;13.70;68.90;;;;;;5033268;28;20033;-61
2021/11/03 02:26:43;;;;;;;7.80;5.45;;;13.70;68.40;;;;;;5031559;28;20487;-61
2021/11/03 02:29:11;;;;;;;7.45;5.95;;;13.80;69.30;;;;;;5033255;28;20064;-60
2021/11/03 02:31:38;;;;;;;6.43;5.50;;;13.70;69.00;;;;;;5032411;28;20057;-61
2021/11/03 02:34:07;;;;;;;7.78;5.63;;;13.70;68.40;;;;;;5031926;28;20025;-61
2021/11/03 02:36:34;;;;;;;7.55;5.55;;;13.60;67.80;;;;;;5042186;28;20033;-61
2021/11/03 02:39:06;;;;;;;7.65;5.10;;;13.50;66.60;;;;;;5034505;28;20041;-60
2021/11/03 02:41:35;;;;;;;8.38;5.70;;;13.40;66.80;;;;;;5023019;28;20451;-61
2021/11/03 02:44:09;;;;;;;6.85;5.88;;;13.40;67.20;;;;;;5037061;28;20033;-61
2021/11/03 02:46:35;;;;;;;8.90;5.93;;;13.40;67.50;;;;;;5051353;28;20364;-60
2021/11/03 02:49:01;;;;;;;6.85;5.57;;;13.60;68.10;;;;;;5055022;28;20119;-60
2021/11/03 02:51:41;;;;;;;10.95;6.47;;;13.70;67.80;;;;;;5049098;28;20040;-60
2021/11/03 02:54:10;;;;;;;9.02;6.80;;;13.50;67.10;;;;;;5039204;28;20067;-60
2021/11/03 02:56:40;;;;;;;7.53;6.28;;;13.50;67.70;;;;;;5046749;28;20064;-61
2021/11/03 02:59:07;;;;;;;10.88;6.57;;;13.70;68.40;;;;;;5039563;28;20109;-60
2021/11/03 03:01:44;;;;;;;8.75;6.40;;;13.60;68.70;;;;;;5039485;28;20513;-60
2021/11/03 03:04:13;;;;;;;8.50;6.30;;;13.70;68.50;;;;;;5055210;28;20027;-60
2021/11/03 03:06:39;;;;;;;7.57;6.25;;;13.70;69.70;;;;;;5038720;28;20033;-60
2021/11/03 03:09:06;;;;;;;9.20;7.35;;;13.60;69.40;;;;;;5050407;28;20086;-60
2021/11/03 03:11:39;;;;;;;9.68;6.72;;;13.60;69.20;;;;;;5057316;28;20036;-60
2021/11/03 03:14:06;;;;;;;7.80;6.28;;;13.70;68.60;;;;;;5050445;28;20033;-60
2021/11/03 03:16:36;;;;;;;8.93;6.13;;;13.80;69.80;;;;;;5038551;28;20025;-60
2021/11/03 03:19:02;;;;;;;11.68;7.07;;;13.80;69.80;;;;;;5038472;28;20033;-60
2021/11/03 03:21:28;;;;;;;7.95;6.35;;;13.80;69.80;;;;;;5044591;28;20040;-61
2021/11/03 03:23:55;;;;;;;8.82;6.22;;;13.90;70.00;;;;;;5040769;28;20356;-60
2021/11/03 03:26:22;;;;;;;10.07;6.78;;;13.70;69.40;;;;;;5040793;28;20040;-60
2021/11/03 03:28:48;;;;;;;8.05;6.60;;;13.80;69.60;;;;;;5059510;28;20062;-60
2021/11/03 03:31:22;;;;;;;9.73;6.88;;;13.60;70.30;;;;;;5052084;28;20033;-61
2021/11/03 03:33:49;;;;;;;7.53;6.20;;;13.50;69.30;;;;;;5039371;28;20029;-61
2021/11/03 03:36:16;;;;;;;8.00;6.53;;;13.70;70.30;;;;;;5043350;28;20029;-60
2021/11/03 03:38:42;;;;;;;7.18;5.95;;;13.60;70.30;;;;;;5059034;28;20045;-60
2021/11/03 03:41:09;;;;;;;10.93;6.53;;;13.70;70.00;;;;;;5053303;28;20053;-60
2021/11/03 03:43:35;;;;;;;8.48;6.18;;;13.70;70.60;;;;;;5039224;28;20485;-60
2021/11/03 03:46:00;;;;;;;7.43;5.97;;;13.70;70.10;;;;;;5037365;28;20120;-61
2021/11/03 03:48:26;;;;;;;6.50;5.80;;;13.70;69.00;;;;;;5037842;28;20103;-61
2021/11/03 03:50:54;;;;;;;9.85;6.10;;;13.80;69.20;;;;;;5039208;28;20557;-61
2021/11/03 03:53:22;;;;;;;8.32;6.22;;;13.70;70.00;;;;;;5059321;28;20033;-60
2021/11/03 03:55:49;;;;;;;7.95;5.75;;;13.60;70.20;;;;;;5056738;28;20121;-60
2021/11/03 03:58:17;;;;;;;6.40;5.80;;;13.90;70.40;;;;;;5037638;28;20029;-60
2021/11/03 04:00:43;;;;;;;8.32;6.45;;;13.90;70.80;;;;;;5035118;28;20026;-60
2021/11/03 04:03:09;;;;;;;6.50;5.72;;;13.70;68.80;;;;;;5015968;28;20160;-60
2021/11/03 04:05:35;;;;;;;8.35;6.15;;;13.80;70.20;;;;;;5016162;28;20517;-60
2021/11/03 04:08:01;;;;;;;9.45;6.50;;;13.80;71.70;;;;;;5033043;28;20026;-60
2021/11/03 04:10:26;;;;;;;9.32;7.47;;;13.70;71.80;;;;;;5035601;28;20029;-60
2021/11/03 04:12:52;;;;;;;9.25;7.78;;;13.70;75.20;;;;;;5052002;28;20455;-60
2021/11/03 04:15:18;;;;;;;9.07;7.13;;;13.80;80.00;;;;;;5039037;28;20040;-60
2021/11/03 04:17:44;;;;;;;10.00;7.47;;;13.60;80.20;;;;;;5050151;28;20033;-60
2021/11/03 04:20:12;;;;;;;12.90;8.77;;;13.50;82.70;;;;;;5054013;28;20120;-60
2021/11/03 04:22:39;;;;;;;12.32;10.18;;;13.50;84.70;;;;;;5037310;28;20167;-60
2021/11/03 04:25:07;;;;;;;14.38;11.02;;;13.40;85.40;;;;;;5035175;28;20025;-61
2021/11/03 04:27:33;;;;;;;18.45;11.32;;;13.50;87.90;;;;;;5048305;28;20398;-60
2021/11/03 04:29:58;;;;;;;19.08;12.23;;;13.50;90.70;;;;;;5055207;28;20040;-60
2021/11/03 04:32:24;;;;;;;16.42;14.05;;;13.50;91.40;;;;;;5040763;28;20033;-61
2021/11/03 04:34:50;;;;;;;17.55;14.20;;;13.60;91.60;;;;;;5035374;28;20091;-60
2021/11/03 04:37:16;;;;;;;16.92;14.15;;;13.50;92.40;;;;;;5034561;28;20043;-60
2021/11/03 04:39:42;;;;;;;19.45;15.48;;;13.40;92.30;;;;;;5034998;28;20127;-60
2021/11/03 04:42:08;;;;;;;24.73;16.25;;;13.40;92.10;;;;;;5036305;28;20083;-60
2021/11/03 04:44:35;;;;;;;20.40;15.95;;;13.30;91.90;;;;;;5035199;28;20030;-60
2021/11/03 04:47:01;;;;;;;20.50;16.42;;;13.40;92.30;;;;;;5034055;28;20057;-60
2021/11/03 04:49:28;;;;;;;19.08;16.60;;;13.50;92.90;;;;;;5034872;28;20051;-61
2021/11/03 04:51:53;;;;;;;19.95;16.10;;;13.30;93.30;;;;;;5040421;28;20497;-60
2021/11/03 04:54:19;;;;;;;18.83;15.75;;;13.30;92.90;;;;;;5054724;28;20025;-63
2021/11/03 04:56:45;;;;;;;20.38;17.35;;;13.30;93.20;;;;;;5051214;28;20036;-61
2021/11/03 04:59:11;;;;;;;25.08;18.27;;;13.10;93.00;;;;;;5053257;28;20360;-61
2021/11/03 05:01:37;;;;;;;22.08;17.33;;;13.20;93.10;;;;;;5052237;28;20390;-61
2021/11/03 05:04:04;;;;;;;19.60;16.98;;;13.40;93.00;;;;;;5054854;28;20070;-60
2021/11/03 05:06:32;;;;;;;23.67;17.42;;;13.40;93.10;;;;;;5052622;28;20051;-60
2021/11/03 05:08:58;;;;;;;20.92;16.85;;;13.30;92.80;;;;;;5054426;28;20025;-60
2021/11/03 05:11:24;;;;;;;26.35;17.83;;;13.50;92.50;;;;;;5049527;28;20033;-61
2021/11/03 05:13:50;;;;;;;21.17;17.70;;;13.40;92.50;;;;;;5054344;28;20025;-60
2021/11/03 05:16:26;;;;;;;23.95;18.42;;;13.50;92.40;;;;;;5050908;28;20414;-60
2021/11/03 05:18:52;;;;;;;21.10;17.35;;;13.40;92.80;;;;;;5015774;28;20159;-60
2021/11/03 05:21:18;;;;;;;22.90;17.80;;;13.30;92.60;;;;;;5016094;28;20081;-60
2021/11/03 05:23:45;;;;;;;26.17;17.13;;;13.50;92.50;;;;;;5034266;28;20022;-60
2021/11/03 05:26:16;;;;;;;22.40;17.20;;;13.40;92.30;;;;;;5041362;28;20065;-60
2021/11/03 05:28:45;;;;;;;20.02;16.10;;;13.40;92.30;;;;;;5034344;28;20029;-60
2021/11/03 05:31:10;;;;;;;20.40;16.05;;;13.30;92.10;;;;;;5033536;28;20159;-61
2021/11/03 05:33:36;;;;;;;20.63;16.33;;;13.40;92.40;;;;;;5032796;28;20112;-60
2021/11/03 05:36:02;;;;;;;20.67;16.80;;;13.60;92.30;;;;;;5034334;28;20142;-60
2021/11/03 05:38:28;;;;;;;20.65;15.80;;;13.60;92.20;;;;;;5051445;28;20052;-60
2021/11/03 05:40:53;;;;;;;18.05;15.85;;;13.50;92.00;;;;;;5038834;28;20160;-61
2021/11/03 05:43:19;;;;;;;18.98;15.43;;;13.80;91.90;;;;;;5031712;28;20478;-61
2021/11/03 05:45:45;;;;;;;19.55;15.20;;;13.80;92.00;;;;;;5032596;28;20558;-60
2021/11/03 05:48:11;;;;;;;19.15;15.23;;;13.70;91.90;;;;;;5033131;28;20029;-60
2021/11/03 05:50:37;;;;;;;17.98;15.60;;;13.80;92.20;;;;;;5032993;28;20033;-61
2021/11/03 05:53:03;;;;;;;16.45;14.30;;;13.80;92.00;;;;;;5032773;28;20483;-60
2021/11/03 05:55:29;;;;;;;19.23;15.98;;;13.70;92.20;;;;;;5033745;28;20038;-61
2021/11/03 05:57:55;;;;;;;19.48;15.82;;;13.70;92.10;;;;;;5045870;28;20035;-60
2021/11/03 06:00:31;;;;;;;21.42;15.85;;;13.90;92.20;;;;;;5053907;28;20033;-61
2021/11/03 06:02:57;;;;;;;16.65;13.82;;;13.90;91.90;;;;;;5038208;28;20049;-61
2021/11/03 06:05:23;;;;;;;17.90;15.65;;;13.80;91.80;;;;;;5033599;28;20073;-61
2021/11/03 06:07:54;;;;;;;18.20;15.77;;;13.80;92.00;;;;;;5031853;28;20113;-61
2021/11/03 06:10:30;;;;;;;18.30;16.40;;;13.80;91.90;;;;;;5033546;28;20059;-62
2021/11/03 06:12:57;;;;;;;16.85;14.38;;;13.90;92.10;;;;;;5042936;28;20465;-61
2021/11/03 06:15:23;;;;;;;19.23;16.45;;;13.80;91.40;;;;;;5053291;28;20111;-61
2021/11/03 06:17:52;;;;;;;18.52;15.88;;;13.80;91.60;;;;;;5039594;28;20112;-60
2021/11/03 06:20:18;;;;;;;18.00;15.25;;;13.80;91.80;;;;;;5033341;28;20033;-60
2021/11/03 06:22:43;;;;;;;20.08;16.83;;;13.80;91.80;;;;;;5030067;28;20030;-60
2021/11/03 06:25:12;;;;;;;20.48;16.30;;;14.00;91.80;;;;;;5011956;28;20042;-60
2021/11/03 06:27:38;;;;;;;24.92;17.80;;;14.00;91.70;;;;;;5028655;28;20026;-60
2021/11/03 06:30:06;;;;;;;20.70;16.98;;;13.70;92.00;;;;;;5015809;28;20096;-59
2021/11/03 06:32:32;;;;;;;23.20;18.02;;;13.90;92.00;;;;;;5020425;28;20032;-61
2021/11/03 06:34:57;;;;;;;26.80;20.05;;;13.80;91.90;;;;;;5030897;28;20033;-61
2021/11/03 06:37:24;;;;;;;26.13;18.92;;;13.90;91.90;;;;;;5036461;28;20095;-61
2021/11/03 06:39:49;;;;;;;24.80;20.25;;;14.10;92.00;;;;;;5035397;28;20053;-61
2021/11/03 06:42:15;;;;;;;24.70;19.83;;;14.10;92.00;;;;;;5030836;28;20479;-61
2021/11/03 06:44:41;;;;;;;26.95;19.67;;;14.00;92.00;;;;;;5032955;28;20109;-61
2021/11/03 06:47:07;;;;;;;26.25;19.45;;;14.00;92.10;;;;;;5036343;28;20494;-61
2021/11/03 06:49:33;;;;;;;30.58;20.90;;;14.10;92.20;;;;;;5052796;28;20108;-61
2021/11/03 06:51:58;;;;;;;27.08;20.67;;;14.10;92.10;;;;;;5049117;28;20068;-60
2021/11/03 06:54:24;;;;;;;27.73;19.60;;;14.10;92.30;;;;;;5053044;28;20367;-61
2021/11/03 06:56:54;;;;;;;28.35;21.13;;;14.00;92.30;;;;;;5049470;28;20142;-61
2021/11/03 06:59:20;;;;;;;29.85;20.92;;;14.00;92.90;;;;;;5033059;28;20032;-61
2021/11/03 07:01:47;;;;;;;30.17;20.60;;;14.00;92.50;;;;;;5031512;28;20026;-61
2021/11/03 07:04:13;;;;;;;27.65;20.73;;;14.00;92.70;;;;;;5025061;28;20030;-61
2021/11/03 07:06:39;;;;;;;27.85;21.25;;;14.00;92.80;;;;;;5021107;28;20048;-61
2021/11/03 07:09:06;;;;;;;29.58;21.27;;;13.80;93.00;;;;;;5013007;28;20022;-61
2021/11/03 07:11:31;;;;;;;28.02;20.75;;;13.90;92.80;;;;;;5013182;28;20035;-61
2021/11/03 07:13:57;;;;;;;24.20;18.60;;;14.00;92.80;;;;;;5031923;28;20029;-61
2021/11/03 07:17:00;;;;;;;26.13;19.70;;;14.00;93.00;;;;;;5032859;28;20030;-61
2021/11/03 07:19:26;;;;;;;26.88;20.80;;;14.00;92.90;;;;;;5043625;28;20092;-61
2021/11/03 07:21:52;;;;;;;30.48;21.83;;;13.90;92.90;;;;;;5012805;28;20553;-61
2021/11/03 07:24:18;;;;;;;27.38;20.13;;;13.90;93.20;;;;;;5029959;28;20056;-61
2021/11/03 07:26:44;;;;;;;30.45;19.98;;;14.00;93.10;;;;;;5030575;28;20037;-61
2021/11/03 07:29:11;;;;;;;31.85;21.75;;;14.00;93.10;;;;;;5046898;28;20025;-61
2021/11/03 07:31:38;;;;;;;28.85;20.60;;;14.10;93.00;;;;;;5052477;28;20482;-61
2021/11/03 07:34:04;;;;;;;26.42;19.50;;;14.10;93.00;;;;;;5035817;28;20479;-61
2021/11/03 07:36:33;;;;;;;24.38;18.52;;;14.10;93.10;;;;;;5036331;28;20035;-61
2021/11/03 07:38:59;;;;;;;22.15;19.10;;;14.00;93.00;;;;;;5033111;28;20524;-61
2021/11/03 07:41:25;;;;;;;25.13;19.33;;;14.10;92.80;;;;;;5036363;28;20105;-61
2021/11/03 07:43:51;;;;;;;25.67;19.38;;;14.00;93.00;;;;;;5035336;28;20399;-61
2021/11/03 07:46:17;;;;;;;23.77;18.52;;;14.00;93.30;;;;;;5036227;28;20030;-61
2021/11/03 07:48:44;;;;;;;28.33;19.40;;;14.00;93.40;;;;;;5045447;28;20078;-60
2021/11/03 07:51:13;;;;;;;30.58;20.88;;;14.00;94.40;;;;;;5055970;28;20040;-61
2021/11/03 07:53:41;;;;;;;29.02;20.13;;;14.00;95.60;;;;;;5044526;28;20041;-60
2021/11/03 07:56:13;;;;;;;29.27;21.27;;;14.00;95.30;;;;;;5035843;28;20501;-61
2021/11/03 07:58:40;;;;;;;28.40;20.55;;;13.90;96.00;;;;;;5044337;28;20085;-61
2021/11/03 08:01:07;;;;;;;29.08;21.48;;;13.90;97.60;;;;;;5053911;28;20111;-60
2021/11/03 08:03:37;;;;;;;26.40;20.05;;;13.80;99.10;;;;;;5053130;28;20021;-61
2021/11/03 08:06:04;;;;;;;29.45;20.55;;;13.70;98.30;;;;;;5033204;28;20128;-61
2021/11/03 08:08:31;;;;;;;31.33;21.08;;;13.80;99.90;;;;;;5035003;28;20052;-61
2021/11/03 08:10:58;;;;;;;33.53;21.42;;;13.80;99.90;;;;;;5035665;28;20105;-61
2021/11/03 08:13:27;;;;;;;24.13;19.30;;;13.80;99.90;;;;;;5041217;28;20053;-61
2021/11/03 08:15:55;;;;;;;26.42;17.83;;;13.70;99.90;;;;;;5055356;28;20024;-61
2021/11/03 08:18:26;;;;;;;28.55;18.58;;;13.70;99.90;;;;;;5047579;28;20100;-61
2021/11/03 08:20:52;;;;;;;28.73;19.23;;;13.70;99.90;;;;;;5035339;28;20032;-62
2021/11/03 08:23:18;;;;;;;21.08;16.92;;;13.70;99.90;;;;;;5039909;28;20025;-62
2021/11/03 08:25:44;;;;;;;19.83;15.18;;;13.80;99.90;;;;;;5055313;28;20033;-61
2021/11/03 08:28:11;;;;;;;20.63;15.20;;;13.70;99.90;;;;;;5049686;28;20017;-61
2021/11/03 08:30:43;;;;;;;22.45;15.02;;;13.60;99.90;;;;;;5028720;28;20487;-61
2021/11/03 08:33:13;;;;;;;19.20;13.00;;;13.80;99.90;;;;;;5035307;28;20022;-61
2021/11/03 08:35:43;;;;;;;15.90;11.90;;;13.70;99.60;;;;;;5035368;28;20048;-62
2021/11/03 08:38:12;;;;;;;16.67;12.18;;;13.70;98.70;;;;;;5033615;28;20022;-62
2021/11/03 08:40:44;;;;;;;17.17;12.52;;;14.00;98.40;;;;;;5054105;28;20072;-62
2021/11/03 08:43:13;;;;;;;20.25;11.50;;;14.00;97.70;;;;;;5055165;28;20594;-62
2021/11/03 08:45:42;;;;;;;19.08;11.98;;;13.90;97.20;;;;;;5054849;28;20041;-62
2021/11/03 08:48:08;;;;;;;17.70;12.27;;;14.00;97.10;;;;;;5054476;28;20071;-62
2021/11/03 08:50:37;;;;;;;16.00;11.85;;;13.90;96.80;;;;;;5051753;28;20120;-62
2021/11/03 08:53:04;;;;;;;18.73;11.98;;;13.90;97.00;;;;;;5051999;28;20029;-61
2021/11/03 08:55:31;;;;;;;28.20;25.30;;;13.90;96.60;;;;;;5052981;28;20116;-62
2021/11/03 08:57:59;;;;;;;16.13;12.80;;;13.90;96.50;;;;;;5045844;28;20527;-62
2021/11/03 09:00:30;;;;;;;16.95;12.00;;;14.10;96.50;;;;;;5028599;28;20112;-62
2021/11/03 09:02:57;;;;;;;16.95;12.68;;;14.10;96.40;;;;;;5033399;28;20052;-62
2021/11/03 09:05:23;;;;;;;16.80;11.98;;;14.10;95.90;;;;;;5048750;28;20063;-61
2021/11/03 09:07:49;;;;;;;13.27;11.27;;;14.10;95.80;;;;;;5051895;28;20032;-62
2021/11/03 09:10:17;;;;;;;14.60;12.48;;;14.10;95.90;;;;;;5047562;28;20029;-62
2021/11/03 09:12:43;;;;;;;16.75;12.75;;;14.00;95.50;;;;;;5054477;28;20078;-61
2021/11/03 09:15:20;;;;;;;24.42;13.80;;;14.20;95.80;;;;;;5038721;28;20117;-61
2021/11/03 09:17:46;;;;;;;14.77;12.27;;;14.20;95.50;;;;;;5033232;28;20072;-61
2021/11/03 09:20:14;;;;;;;16.35;13.57;;;14.20;95.30;;;;;;5037517;28;20057;-61
2021/11/03 09:22:41;;;;;;;14.90;12.20;;;14.40;95.60;;;;;;5052829;28;20082;-61
2021/11/03 09:25:10;;;;;;;16.23;12.38;;;14.40;95.30;;;;;;5051473;28;20078;-62
2021/11/03 09:27:36;;;;;;;16.63;12.02;;;14.20;95.50;;;;;;5034166;28;20056;-60
2021/11/03 09:30:03;;;;;;;16.08;12.18;;;14.10;95.40;;;;;;5012418;28;20360;-61
2021/11/03 09:32:30;;;;;;;15.18;12.18;;;14.20;95.40;;;;;;5013194;28;20059;-61
2021/11/03 09:34:58;;;;;;;14.05;11.75;;;14.20;95.30;;;;;;5014319;28;20248;-61
2021/11/03 09:40:56;;;;;;;13.43;12.02;;;14.20;95.60;;;;;;4995491;28;20069;-60
2021/11/03 09:43:56;;;;;;;13.02;11.23;;;14.20;95.70;;;;;;5030420;28;20033;-61
2021/11/03 09:46:38;;;;;;;16.17;12.00;;;14.20;95.90;;;;;;5024992;28;20036;-61
2021/11/03 09:49:42;;;;;;;13.02;11.18;;;14.20;96.30;;;;;;5053880;28;20108;-61
2021/11/03 09:52:25;;;;;;;14.38;11.52;;;14.30;95.80;;;;;;5000057;28;20070;-61
2021/11/03 09:54:58;;;;;;;13.43;10.70;;;14.20;96.30;;;;;;5012429;28;20042;-61
2021/11/03 09:57:27;;;;;;;15.93;11.20;;;13.90;96.30;;;;;;5040676;28;20119;-61
2021/11/03 10:00:01;;;;;;;14.35;12.25;;;14.10;96.60;;;;;;5032934;28;20159;-61
2021/11/03 10:02:29;;;;;;;14.52;11.93;;;14.20;96.50;;;;;;5044743;28;20032;-61
2021/11/03 10:05:28;;;;;;;13.05;10.27;;;14.30;97.70;;;;;;5052031;28;20123;-61
2021/11/03 10:07:58;;;;;;;11.63;9.32;;;14.30;98.00;;;;;;5051338;28;20021;-61
2021/11/03 10:10:32;;;;;;;10.85;9.00;;;14.00;97.60;;;;;;5053253;28;20076;-61
2021/11/03 10:13:00;;;;;;;12.50;10.80;;;14.20;97.80;;;;;;5035965;28;20143;-61
2021/11/03 10:15:28;;;;;;;12.02;10.68;;;14.10;97.60;;;;;;5032046;28;20127;-61
2021/11/03 10:18:14;;;;;;;13.30;10.20;;;14.10;98.40;;;;;;5028408;28;20037;-61
2021/11/03 10:20:44;;;;;;;13.38;9.10;;;13.90;99.10;;;;;;5013654;28;20029;-61
2021/11/03 10:23:19;;;;;;;12.77;9.57;;;13.90;98.60;;;;;;5030289;28;20029;-61
2021/11/03 10:25:56;;;;;;;;;;;14.10;99.40;;;;;;5033529;28;20491;-62
2021/11/03 10:28:36;;;;;;;11.07;9.38;;;13.80;99.90;;;;;;5030204;28;20400;-62
2021/11/03 10:31:03;;;;;;;12.60;9.18;;;14.00;99.90;;;;;;5033142;28;20061;-62
2021/11/03 10:33:34;;;;;;;9.05;8.07;;;14.00;99.20;;;;;;5044514;28;20066;-62
2021/11/03 10:36:24;;;;;;;12.13;9.05;;;13.80;98.40;;;;;;5026645;28;20427;-61
2021/11/03 10:39:01;;;;;;;13.90;9.02;;;14.10;98.90;;;;;;5011318;28;20064;-63
2021/11/03 10:41:35;;;;;;;13.52;9.55;;;13.90;99.90;;;;;;5016185;28;20050;-62
2021/11/03 10:44:20;;;;;;;11.63;9.27;;;13.90;99.90;;;;;;5051412;28;20493;-61
2021/11/03 10:46:55;;;;;;;10.95;9.07;;;13.90;99.90;;;;;;5041296;28;20036;-61
2021/11/03 10:49:24;;;;;;;12.77;8.45;;;13.80;99.90;;;;;;5052942;28;20466;-61
2021/11/03 10:52:00;;;;;;;11.05;8.23;;;13.90;99.90;;;;;;5049658;28;20029;-61
2021/11/03 10:54:55;;;;;;;10.68;7.68;;;13.90;99.90;;;;;;5052738;28;20040;-61
2021/11/03 10:57:44;;;;;;;15.23;8.57;;;14.00;99.90;;;;;;5050253;28;20238;-60
2021/11/03 11:00:19;;;;;;;10.18;7.28;;;13.80;99.90;;;;;;5043818;28;20399;-61
2021/11/03 11:03:03;;;;;;;;;;;13.80;99.90;;;;;;5023225;28;20026;-61
2021/11/03 11:05:34;;;;;;;9.70;7.88;;;13.70;99.90;;;;;;5025426;28;19921;-61
2021/11/03 11:08:18;;;;;;;10.35;7.43;;;13.80;99.90;;;;;;5035985;28;20021;-61
2021/11/03 11:10:58;;;;;;;12.82;8.80;;;13.80;99.90;;;;;;5034840;28;20497;-61
2021/11/03 11:13:27;;;;;;;10.85;8.00;;;13.90;99.90;;;;;;5033629;28;20025;-61
2021/11/03 11:16:24;;;;;;;13.00;7.97;;;14.10;99.90;;;;;;5033655;28;20506;-61
2021/11/03 11:18:52;;;;;;;8.77;6.85;;;14.00;99.90;;;;;;5034709;28;20052;-61
2021/11/03 11:21:43;;;;;;;9.57;6.40;;;13.90;99.90;;;;;;5035761;28;20029;-61
2021/11/03 11:24:35;;;;;;;8.32;6.35;;;14.00;99.70;;;;;;5015500;28;20121;-61
2021/11/03 11:27:35;;;;;;;10.40;6.72;;;14.00;99.80;;;;;;5026984;28;20029;-61
2021/11/03 11:30:16;;;;;;;10.40;7.00;;;14.10;98.80;;;;;;5035102;28;20033;-61
2021/11/03 11:33:11;;;;;;;10.25;7.22;;;14.20;98.60;;;;;;5045785;28;20386;-61
2021/11/03 11:36:06;;;;;;;10.90;6.63;;;14.10;98.80;;;;;;5036486;28;20025;-61
2021/11/03 11:38:50;;;;;;;8.13;5.40;;;14.20;99.40;;;;;;5032628;28;20037;-61
2021/11/03 11:41:39;;;;;;;10.52;6.40;;;14.20;98.30;;;;;;5045401;28;20045;-61
2021/11/03 11:44:18;;;;;;;11.27;6.75;;;14.30;97.90;;;;;;5054990;28;20108;-61
2021/11/03 11:46:46;;;;;;;10.07;6.43;;;14.20;97.60;;;;;;5052727;28;20114;-61
2021/11/03 11:49:33;;;;;;;11.35;6.88;;;14.20;98.10;;;;;;5035197;28;20029;-62
2021/11/03 11:52:04;;;;;;;8.85;6.20;;;14.40;99.90;;;;;;5019833;28;20527;-61
2021/11/03 11:54:38;;;;;;;12.55;7.47;;;14.30;99.90;;;;;;5055985;28;20439;-62
2021/11/03 11:57:23;;;;;;;11.52;6.95;;;14.40;99.90;;;;;;5053680;28;20364;-62
2021/11/03 12:00:03;;;;;;;11.52;7.03;;;14.40;99.90;;;;;;5051944;28;20549;-62
2021/11/03 12:02:33;;;;;;;12.27;6.50;;;14.30;99.30;;;;;;5027760;28;20033;-62
2021/11/03 12:05:20;;;;;;;9.70;6.47;;;14.30;99.90;;;;;;5055786;28;20040;-53
2021/11/03 12:08:08;;;;;;;13.35;7.68;;;14.60;99.90;;;;;;5043013;28;20518;-61
2021/11/03 12:10:38;;;;;;;14.32;7.85;;;14.40;99.90;;;;;;5035301;28;20028;-62
2021/11/03 12:13:03;;;;;;;9.35;6.88;;;14.50;99.90;;;;;;5029436;28;20041;-61
2021/11/03 12:15:50;;;;;;;14.48;7.15;;;14.40;99.90;;;;;;5035783;28;20415;-62
2021/11/03 12:18:24;;;;;;;7.18;6.18;;;14.40;99.90;;;;;;5034857;28;20120;-62
2021/11/03 12:21:01;;;;;;;10.32;6.53;;;14.60;99.90;;;;;;5033391;28;20084;-62
2021/11/03 12:23:55;;;;;;;14.52;8.15;;;14.40;99.90;;;;;;5036012;28;20491;-61
2021/11/03 12:26:27;;;;;;;11.80;7.47;;;14.40;99.90;;;;;;5022576;28;20390;-61
2021/11/03 12:28:54;;;;;;;10.60;6.55;;;14.40;99.90;;;;;;5036064;28;20037;-61
2021/11/03 12:31:21;;;;;;;15.05;6.97;;;14.40;99.90;;;;;;5035454;28;20112;-61
2021/11/03 12:34:24;;;;;;;12.05;8.02;;;14.60;99.90;;;;;;5044642;28;20332;-61
2021/11/03 12:36:54;;;;;;;15.52;6.75;;;14.60;99.90;;;;;;5044815;28;20048;-61
2021/11/03 12:39:29;;;;;;;13.40;6.63;;;14.60;99.90;;;;;;5015087;28;20034;-61
2021/11/03 12:42:17;;;;;;;11.13;6.05;;;14.50;99.90;;;;;;5015478;28;20065;-61
2021/11/03 12:45:18;;;;;;;13.18;6.60;;;14.50;99.90;;;;;;5033852;28;20025;-61
2021/11/03 12:47:56;;;;;;;7.18;5.13;;;14.50;99.90;;;;;;5034137;28;20029;-61
2021/11/03 12:50:38;;;;;;;9.73;6.25;;;14.50;99.90;;;;;;5043379;28;20489;-61
2021/11/03 12:53:07;;;;;;;8.90;5.75;;;14.60;99.90;;;;;;5051841;28;20103;-61
2021/11/03 12:55:41;;;;;;;9.73;5.88;;;14.50;99.90;;;;;;5050643;28;20065;-61